sensor_id;sensor_type;location;lat;lon;timestamp;P1;durP1;ratioP1;P2;durP2;ratioP2
40623;SDS011;26325;48.594;11.650;2023-03-29T00:00:39;3.63;;;3.00;;
40623;SDS011;26325;48.594;11.650;2023-03-29T00:03:05;3.60;;;3.05;;
40623;SDS011;26325;48.594;11.650;2023-03-29T00:05:31;4.22;;;3.10;;
40623;SDS011;26325;48.594;11.650;2023-03-29T00:07:59;3.65;;;3.25;;
40623;SDS011;26325;48.594;11.650;2023-03-29T00:10:29;3.20;;;2.90;;
40623;SDS011;26325;48.594;11.650;2023-03-29T00:12:56;3.83;;;3.40;;
40623;SDS011;26325;48.594;11.650;2023-03-29T00:15:22;3.50;;;3.20;;
40623;SDS011;26325;48.594;11.650;2023-03-29T00:17:49;3.65;;;3.35;;
40623;SDS011;26325;48.594;11.650;2023-03-29T00:20:17;3.85;;;3.28;;
40623;SDS011;26325;48.594;11.650;2023-03-29T00:22:45;3.50;;;3.20;;
40623;SDS011;26325;48.594;11.650;2023-03-29T00:25:11;4.40;;;3.60;;
40623;SDS011;26325;48.594;11.650;2023-03-29T00:27:38;3.75;;;3.40;;
40623;SDS011;26325;48.594;11.650;2023-03-29T00:30:05;5.47;;;3.58;;
40623;SDS011;26325;48.594;11.650;2023-03-29T00:32:35;3.53;;;3.22;;
40623;SDS011;26325;48.594;11.650;2023-03-29T00:35:01;3.53;;;3.22;;
40623;SDS011;26325;48.594;11.650;2023-03-29T00:37:29;3.58;;;3.28;;
40623;SDS011;26325;48.594;11.650;2023-03-29T00:39:57;5.68;;;3.25;;
40623;SDS011;26325;48.594;11.650;2023-03-29T00:42:23;3.83;;;3.30;;
40623;SDS011;26325;48.594;11.650;2023-03-29T00:47:51;4.75;;;3.42;;
40623;SDS011;26325;48.594;11.650;2023-03-29T00:50:28;3.85;;;3.15;;
40623;SDS011;26325;48.594;11.650;2023-03-29T00:55:50;3.17;;;2.88;;
40623;SDS011;26325;48.594;11.650;2023-03-29T00:58:25;4.13;;;3.35;;
40623;SDS011;26325;48.594;11.650;2023-03-29T01:00:59;4.28;;;3.10;;
40623;SDS011;26325;48.594;11.650;2023-03-29T01:03:30;3.30;;;2.95;;
40623;SDS011;26325;48.594;11.650;2023-03-29T01:06:04;5.28;;;3.20;;
40623;SDS011;26325;48.594;11.650;2023-03-29T01:08:40;3.60;;;3.30;;
40623;SDS011;26325;48.594;11.650;2023-03-29T01:11:18;3.33;;;3.03;;
40623;SDS011;26325;48.594;11.650;2023-03-29T01:16:22;4.40;;;3.63;;
40623;SDS011;26325;48.594;11.650;2023-03-29T01:18:49;3.78;;;2.97;;
40623;SDS011;26325;48.594;11.650;2023-03-29T01:21:21;3.30;;;3.00;;
40623;SDS011;26325;48.594;11.650;2023-03-29T01:29:53;3.08;;;2.63;;
40623;SDS011;26325;48.594;11.650;2023-03-29T01:32:26;2.95;;;2.60;;
40623;SDS011;26325;48.594;11.650;2023-03-29T01:35:15;3.03;;;2.75;;
40623;SDS011;26325;48.594;11.650;2023-03-29T01:37:57;2.55;;;2.10;;
40623;SDS011;26325;48.594;11.650;2023-03-29T01:40:27;3.05;;;2.30;;
40623;SDS011;26325;48.594;11.650;2023-03-29T01:43:15;2.22;;;2.03;;
40623;SDS011;26325;48.594;11.650;2023-03-29T01:46:13;2.10;;;1.90;;
40623;SDS011;26325;48.594;11.650;2023-03-29T01:48:47;2.00;;;1.80;;
40623;SDS011;26325;48.594;11.650;2023-03-29T01:51:41;2.10;;;1.90;;
40623;SDS011;26325;48.594;11.650;2023-03-29T01:54:21;1.88;;;1.70;;
40623;SDS011;26325;48.594;11.650;2023-03-29T01:56:51;1.50;;;1.40;;
40623;SDS011;26325;48.594;11.650;2023-03-29T01:59:21;1.60;;;1.45;;
40623;SDS011;26325;48.594;11.650;2023-03-29T02:01:54;2.67;;;1.60;;
40623;SDS011;26325;48.594;11.650;2023-03-29T02:04:36;1.60;;;1.50;;
40623;SDS011;26325;48.594;11.650;2023-03-29T02:07:04;1.60;;;1.50;;
40623;SDS011;26325;48.594;11.650;2023-03-29T02:09:33;1.63;;;1.52;;
40623;SDS011;26325;48.594;11.650;2023-03-29T02:12:01;1.58;;;1.48;;
40623;SDS011;26325;48.594;11.650;2023-03-29T02:14:29;1.67;;;1.58;;
40623;SDS011;26325;48.594;11.650;2023-03-29T02:16:55;1.63;;;1.52;;
40623;SDS011;26325;48.594;11.650;2023-03-29T02:21:55;2.13;;;1.65;;
40623;SDS011;26325;48.594;11.650;2023-03-29T02:24:28;1.48;;;1.38;;
40623;SDS011;26325;48.594;11.650;2023-03-29T02:26:57;1.67;;;1.52;;
40623;SDS011;26325;48.594;11.650;2023-03-29T02:29:23;1.50;;;1.40;;
40623;SDS011;26325;48.594;11.650;2023-03-29T02:31:52;1.30;;;1.20;;
40623;SDS011;26325;48.594;11.650;2023-03-29T02:34:31;1.95;;;1.50;;
40623;SDS011;26325;48.594;11.650;2023-03-29T02:37:11;1.70;;;1.60;;
40623;SDS011;26325;48.594;11.650;2023-03-29T02:39:39;1.63;;;1.52;;
40623;SDS011;26325;48.594;11.650;2023-03-29T02:42:06;1.73;;;1.63;;
40623;SDS011;26325;48.594;11.650;2023-03-29T02:44:37;1.85;;;1.73;;
40623;SDS011;26325;48.594;11.650;2023-03-29T02:47:13;2.05;;;1.85;;
40623;SDS011;26325;48.594;11.650;2023-03-29T02:49:42;1.60;;;1.50;;
40623;SDS011;26325;48.594;11.650;2023-03-29T02:52:10;1.50;;;1.40;;
40623;SDS011;26325;48.594;11.650;2023-03-29T02:54:40;1.48;;;1.38;;
40623;SDS011;26325;48.594;11.650;2023-03-29T02:57:09;1.85;;;1.50;;
40623;SDS011;26325;48.594;11.650;2023-03-29T02:59:35;1.50;;;1.40;;
40623;SDS011;26325;48.594;11.650;2023-03-29T03:02:03;1.40;;;1.30;;
40623;SDS011;26325;48.594;11.650;2023-03-29T03:04:32;1.52;;;1.42;;
40623;SDS011;26325;48.594;11.650;2023-03-29T03:07:00;1.80;;;1.67;;
40623;SDS011;26325;48.594;11.650;2023-03-29T03:09:26;3.47;;;1.90;;
40623;SDS011;26325;48.594;11.650;2023-03-29T03:11:52;1.83;;;1.73;;
40623;SDS011;26325;48.594;11.650;2023-03-29T03:14:18;2.20;;;2.00;;
40623;SDS011;26325;48.594;11.650;2023-03-29T03:16:47;1.77;;;1.67;;
40623;SDS011;26325;48.594;11.650;2023-03-29T03:19:14;1.70;;;1.60;;
40623;SDS011;26325;48.594;11.650;2023-03-29T03:21:43;1.80;;;1.70;;
40623;SDS011;26325;48.594;11.650;2023-03-29T03:24:09;2.25;;;2.00;;
40623;SDS011;26325;48.594;11.650;2023-03-29T03:26:35;2.25;;;2.05;;
40623;SDS011;26325;48.594;11.650;2023-03-29T03:29:02;1.90;;;1.80;;
40623;SDS011;26325;48.594;11.650;2023-03-29T03:31:27;1.80;;;1.70;;
40623;SDS011;26325;48.594;11.650;2023-03-29T03:33:53;1.90;;;1.80;;
40623;SDS011;26325;48.594;11.650;2023-03-29T03:38:50;1.85;;;1.75;;
40623;SDS011;26325;48.594;11.650;2023-03-29T03:41:17;2.35;;;2.15;;
40623;SDS011;26325;48.594;11.650;2023-03-29T03:43:43;2.42;;;2.13;;
40623;SDS011;26325;48.594;11.650;2023-03-29T03:46:16;2.60;;;2.40;;
40623;SDS011;26325;48.594;11.650;2023-03-29T03:48:43;2.63;;;2.42;;
40623;SDS011;26325;48.594;11.650;2023-03-29T03:51:09;2.85;;;2.20;;
40623;SDS011;26325;48.594;11.650;2023-03-29T03:53:35;2.38;;;2.10;;
40623;SDS011;26325;48.594;11.650;2023-03-29T03:56:00;3.42;;;2.55;;
40623;SDS011;26325;48.594;11.650;2023-03-29T03:58:33;2.50;;;2.30;;
40623;SDS011;26325;48.594;11.650;2023-03-29T04:01:01;2.55;;;2.33;;
40623;SDS011;26325;48.594;11.650;2023-03-29T04:03:27;2.60;;;2.40;;
40623;SDS011;26325;48.594;11.650;2023-03-29T04:05:54;2.60;;;2.40;;
40623;SDS011;26325;48.594;11.650;2023-03-29T04:08:20;3.55;;;2.70;;
40623;SDS011;26325;48.594;11.650;2023-03-29T04:10:53;2.83;;;2.25;;
40623;SDS011;26325;48.594;11.650;2023-03-29T04:13:20;2.92;;;2.53;;
40623;SDS011;26325;48.594;11.650;2023-03-29T04:15:46;2.72;;;2.25;;
40623;SDS011;26325;48.594;11.650;2023-03-29T04:18:14;2.38;;;2.17;;
40623;SDS011;26325;48.594;11.650;2023-03-29T04:20:41;3.03;;;2.60;;
40623;SDS011;26325;48.594;11.650;2023-03-29T04:23:07;2.85;;;2.30;;
40623;SDS011;26325;48.594;11.650;2023-03-29T04:25:33;3.10;;;2.35;;
40623;SDS011;26325;48.594;11.650;2023-03-29T04:27:59;2.85;;;2.50;;
40623;SDS011;26325;48.594;11.650;2023-03-29T04:30:25;3.10;;;2.50;;
40623;SDS011;26325;48.594;11.650;2023-03-29T04:35:16;3.20;;;2.90;;
40623;SDS011;26325;48.594;11.650;2023-03-29T04:37:42;2.95;;;2.58;;
40623;SDS011;26325;48.594;11.650;2023-03-29T04:42:35;2.60;;;2.33;;
40623;SDS011;26325;48.594;11.650;2023-03-29T04:45:02;2.83;;;2.53;;
40623;SDS011;26325;48.594;11.650;2023-03-29T04:47:30;2.88;;;2.53;;
40623;SDS011;26325;48.594;11.650;2023-03-29T04:49:55;3.38;;;2.25;;
40623;SDS011;26325;48.594;11.650;2023-03-29T04:52:21;3.03;;;2.60;;
40623;SDS011;26325;48.594;11.650;2023-03-29T04:54:46;2.65;;;2.45;;
40623;SDS011;26325;48.594;11.650;2023-03-29T04:59:37;2.55;;;2.25;;
40623;SDS011;26325;48.594;11.650;2023-03-29T05:02:03;2.60;;;2.13;;
40623;SDS011;26325;48.594;11.650;2023-03-29T05:06:56;3.30;;;1.92;;
40623;SDS011;26325;48.594;11.650;2023-03-29T05:09:23;2.83;;;2.15;;
40623;SDS011;26325;48.594;11.650;2023-03-29T05:11:50;2.20;;;2.00;;
40623;SDS011;26325;48.594;11.650;2023-03-29T05:14:16;2.10;;;1.90;;
40623;SDS011;26325;48.594;11.650;2023-03-29T05:16:42;1.98;;;1.80;;
40623;SDS011;26325;48.594;11.650;2023-03-29T05:19:08;2.47;;;1.88;;
40623;SDS011;26325;48.594;11.650;2023-03-29T05:21:35;2.22;;;1.83;;
40623;SDS011;26325;48.594;11.650;2023-03-29T05:24:01;2.13;;;1.92;;
40623;SDS011;26325;48.594;11.650;2023-03-29T05:26:28;1.83;;;1.73;;
40623;SDS011;26325;48.594;11.650;2023-03-29T05:28:54;1.70;;;1.60;;
40623;SDS011;26325;48.594;11.650;2023-03-29T05:31:21;2.05;;;1.85;;
40623;SDS011;26325;48.594;11.650;2023-03-29T05:33:48;2.30;;;1.58;;
40623;SDS011;26325;48.594;11.650;2023-03-29T05:36:16;1.45;;;1.35;;
40623;SDS011;26325;48.594;11.650;2023-03-29T05:38:43;1.38;;;1.27;;
40623;SDS011;26325;48.594;11.650;2023-03-29T05:41:11;2.13;;;1.45;;
40623;SDS011;26325;48.594;11.650;2023-03-29T05:43:37;2.22;;;1.60;;
40623;SDS011;26325;48.594;11.650;2023-03-29T05:46:03;1.50;;;1.40;;
40623;SDS011;26325;48.594;11.650;2023-03-29T05:48:32;1.70;;;1.60;;
40623;SDS011;26325;48.594;11.650;2023-03-29T05:50:57;1.60;;;1.50;;
40623;SDS011;26325;48.594;11.650;2023-03-29T05:53:24;1.55;;;1.45;;
40623;SDS011;26325;48.594;11.650;2023-03-29T05:55:54;1.15;;;1.10;;
40623;SDS011;26325;48.594;11.650;2023-03-29T05:58:20;1.52;;;1.20;;
40623;SDS011;26325;48.594;11.650;2023-03-29T06:00:48;1.40;;;1.30;;
40623;SDS011;26325;48.594;11.650;2023-03-29T06:03:19;2.17;;;1.20;;
40623;SDS011;26325;48.594;11.650;2023-03-29T06:05:55;1.13;;;1.02;;
40623;SDS011;26325;48.594;11.650;2023-03-29T06:08:27;1.33;;;1.13;;
40623;SDS011;26325;48.594;11.650;2023-03-29T06:11:00;1.25;;;1.15;;
40623;SDS011;26325;48.594;11.650;2023-03-29T06:13:31;1.70;;;1.25;;
40623;SDS011;26325;48.594;11.650;2023-03-29T06:15:58;1.33;;;1.20;;
40623;SDS011;26325;48.594;11.650;2023-03-29T06:18:25;2.22;;;1.20;;
40623;SDS011;26325;48.594;11.650;2023-03-29T06:20:51;1.10;;;1.00;;
40623;SDS011;26325;48.594;11.650;2023-03-29T06:23:18;1.17;;;1.00;;
40623;SDS011;26325;48.594;11.650;2023-03-29T06:25:45;0.90;;;0.90;;
40623;SDS011;26325;48.594;11.650;2023-03-29T06:28:14;1.23;;;1.10;;
40623;SDS011;26325;48.594;11.650;2023-03-29T06:30:40;3.17;;;1.20;;
40623;SDS011;26325;48.594;11.650;2023-03-29T06:33:08;1.52;;;1.20;;
40623;SDS011;26325;48.594;11.650;2023-03-29T06:35:35;1.10;;;1.00;;
40623;SDS011;26325;48.594;11.650;2023-03-29T06:38:02;1.63;;;1.48;;
40623;SDS011;26325;48.594;11.650;2023-03-29T06:40:29;1.38;;;1.10;;
40623;SDS011;26325;48.594;11.650;2023-03-29T06:42:55;1.40;;;1.00;;
40623;SDS011;26325;48.594;11.650;2023-03-29T06:45:26;1.02;;;1.00;;
40623;SDS011;26325;48.594;11.650;2023-03-29T06:47:53;2.10;;;1.08;;
40623;SDS011;26325;48.594;11.650;2023-03-29T06:50:19;1.17;;;1.08;;
40623;SDS011;26325;48.594;11.650;2023-03-29T06:55:11;1.37;;;1.00;;
40623;SDS011;26325;48.594;11.650;2023-03-29T06:57:37;1.20;;;1.10;;
40623;SDS011;26325;48.594;11.650;2023-03-29T07:00:08;1.20;;;1.10;;
40623;SDS011;26325;48.594;11.650;2023-03-29T07:02:40;1.10;;;1.05;;
40623;SDS011;26325;48.594;11.650;2023-03-29T07:07:36;1.40;;;1.10;;
40623;SDS011;26325;48.594;11.650;2023-03-29T07:10:28;1.67;;;1.20;;
40623;SDS011;26325;48.594;11.650;2023-03-29T07:12:58;1.30;;;1.20;;
40623;SDS011;26325;48.594;11.650;2023-03-29T07:15:26;1.20;;;1.10;;
40623;SDS011;26325;48.594;11.650;2023-03-29T07:17:52;1.50;;;1.40;;
40623;SDS011;26325;48.594;11.650;2023-03-29T07:20:18;8.60;;;7.70;;
40623;SDS011;26325;48.594;11.650;2023-03-29T07:22:46;3.28;;;2.97;;
40623;SDS011;26325;48.594;11.650;2023-03-29T07:25:16;2.30;;;1.65;;
40623;SDS011;26325;48.594;11.650;2023-03-29T07:27:43;2.55;;;1.45;;
40623;SDS011;26325;48.594;11.650;2023-03-29T07:30:13;2.92;;;1.20;;
40623;SDS011;26325;48.594;11.650;2023-03-29T07:32:41;1.50;;;1.40;;
40623;SDS011;26325;48.594;11.650;2023-03-29T07:35:10;1.48;;;1.20;;
40623;SDS011;26325;48.594;11.650;2023-03-29T07:37:38;1.35;;;1.17;;
40623;SDS011;26325;48.594;11.650;2023-03-29T07:40:06;1.50;;;1.40;;
40623;SDS011;26325;48.594;11.650;2023-03-29T07:42:39;2.38;;;1.40;;
40623;SDS011;26325;48.594;11.650;2023-03-29T07:47:32;1.40;;;1.30;;
40623;SDS011;26325;48.594;11.650;2023-03-29T07:49:59;2.28;;;1.25;;
40623;SDS011;26325;48.594;11.650;2023-03-29T07:52:25;2.13;;;1.27;;
40623;SDS011;26325;48.594;11.650;2023-03-29T07:54:53;1.33;;;1.23;;
40623;SDS011;26325;48.594;11.650;2023-03-29T07:57:20;2.20;;;1.20;;
40623;SDS011;26325;48.594;11.650;2023-03-29T07:59:46;1.35;;;1.25;;
40623;SDS011;26325;48.594;11.650;2023-03-29T08:04:38;3.45;;;1.30;;
40623;SDS011;26325;48.594;11.650;2023-03-29T08:07:04;2.80;;;1.40;;
40623;SDS011;26325;48.594;11.650;2023-03-29T08:11:56;3.05;;;1.40;;
40623;SDS011;26325;48.594;11.650;2023-03-29T08:16:48;2.40;;;1.10;;
40623;SDS011;26325;48.594;11.650;2023-03-29T08:19:15;3.67;;;1.23;;
40623;SDS011;26325;48.594;11.650;2023-03-29T08:24:06;3.08;;;1.20;;
40623;SDS011;26325;48.594;11.650;2023-03-29T08:28:58;2.50;;;1.20;;
40623;SDS011;26325;48.594;11.650;2023-03-29T08:33:49;2.00;;;1.20;;
40623;SDS011;26325;48.594;11.650;2023-03-29T08:36:17;1.23;;;1.10;;
40623;SDS011;26325;48.594;11.650;2023-03-29T08:44:18;1.20;;;1.10;;
40623;SDS011;26325;48.594;11.650;2023-03-29T08:49:23;1.30;;;1.20;;
40623;SDS011;26325;48.594;11.650;2023-03-29T08:52:25;1.88;;;1.30;;
40623;SDS011;26325;48.594;11.650;2023-03-29T08:54:59;2.45;;;1.45;;
40623;SDS011;26325;48.594;11.650;2023-03-29T08:57:29;1.42;;;1.20;;
40623;SDS011;26325;48.594;11.650;2023-03-29T09:00:01;2.55;;;1.48;;
40623;SDS011;26325;48.594;11.650;2023-03-29T09:02:31;1.95;;;1.30;;
40623;SDS011;26325;48.594;11.650;2023-03-29T09:05:17;1.80;;;1.20;;
40623;SDS011;26325;48.594;11.650;2023-03-29T09:07:46;3.15;;;1.55;;
40623;SDS011;26325;48.594;11.650;2023-03-29T09:15:17;3.20;;;1.52;;
40623;SDS011;26325;48.594;11.650;2023-03-29T09:18:18;2.25;;;1.50;;
40623;SDS011;26325;48.594;11.650;2023-03-29T09:20:59;2.25;;;1.50;;
40623;SDS011;26325;48.594;11.650;2023-03-29T09:26:20;2.65;;;1.60;;
40623;SDS011;26325;48.594;11.650;2023-03-29T09:32:46;2.30;;;1.70;;
40623;SDS011;26325;48.594;11.650;2023-03-29T09:35:30;1.83;;;1.50;;
40623;SDS011;26325;48.594;11.650;2023-03-29T09:38:01;1.60;;;1.20;;
40623;SDS011;26325;48.594;11.650;2023-03-29T09:40:45;2.67;;;1.45;;
40623;SDS011;26325;48.594;11.650;2023-03-29T09:43:17;1.73;;;1.20;;
40623;SDS011;26325;48.594;11.650;2023-03-29T09:45:51;2.28;;;1.20;;
40623;SDS011;26325;48.594;11.650;2023-03-29T09:48:20;1.55;;;1.27;;
40623;SDS011;26325;48.594;11.650;2023-03-29T09:50:49;2.80;;;1.50;;
40623;SDS011;26325;48.594;11.650;2023-03-29T09:53:16;1.92;;;1.15;;
40623;SDS011;26325;48.594;11.650;2023-03-29T09:55:48;1.08;;;0.98;;
40623;SDS011;26325;48.594;11.650;2023-03-29T09:58:22;1.35;;;1.20;;
40623;SDS011;26325;48.594;11.650;2023-03-29T10:03:26;2.15;;;1.27;;
40623;SDS011;26325;48.594;11.650;2023-03-29T10:05:54;1.98;;;1.33;;
40623;SDS011;26325;48.594;11.650;2023-03-29T10:08:29;2.88;;;1.65;;
40623;SDS011;26325;48.594;11.650;2023-03-29T10:11:02;2.25;;;1.40;;
40623;SDS011;26325;48.594;11.650;2023-03-29T10:13:35;2.05;;;1.30;;
40623;SDS011;26325;48.594;11.650;2023-03-29T10:18:42;1.27;;;1.17;;
40623;SDS011;26325;48.594;11.650;2023-03-29T10:23:39;2.55;;;1.40;;
40623;SDS011;26325;48.594;11.650;2023-03-29T10:26:17;1.65;;;1.27;;
40623;SDS011;26325;48.594;11.650;2023-03-29T10:28:52;1.40;;;1.30;;
40623;SDS011;26325;48.594;11.650;2023-03-29T10:31:19;3.58;;;1.70;;
40623;SDS011;26325;48.594;11.650;2023-03-29T10:33:54;1.55;;;1.33;;
40623;SDS011;26325;48.594;11.650;2023-03-29T10:36:22;1.48;;;1.15;;
40623;SDS011;26325;48.594;11.650;2023-03-29T10:38:50;2.42;;;1.85;;
40623;SDS011;26325;48.594;11.650;2023-03-29T10:41:19;1.88;;;1.35;;
40623;SDS011;26325;48.594;11.650;2023-03-29T10:43:48;2.88;;;1.35;;
40623;SDS011;26325;48.594;11.650;2023-03-29T10:46:19;2.22;;;1.10;;
40623;SDS011;26325;48.594;11.650;2023-03-29T10:48:59;1.33;;;1.20;;
40623;SDS011;26325;48.594;11.650;2023-03-29T10:51:28;2.00;;;1.30;;
40623;SDS011;26325;48.594;11.650;2023-03-29T10:53:59;1.38;;;1.20;;
40623;SDS011;26325;48.594;11.650;2023-03-29T10:56:58;1.58;;;1.42;;
40623;SDS011;26325;48.594;11.650;2023-03-29T11:05:16;1.65;;;1.40;;
40623;SDS011;26325;48.594;11.650;2023-03-29T11:10:49;1.40;;;1.30;;
40623;SDS011;26325;48.594;11.650;2023-03-29T11:16:30;1.40;;;1.30;;
40623;SDS011;26325;48.594;11.650;2023-03-29T11:22:26;1.50;;;1.40;;
40623;SDS011;26325;48.594;11.650;2023-03-29T11:30:38;1.90;;;1.38;;
40623;SDS011;26325;48.594;11.650;2023-03-29T11:41:27;1.65;;;1.30;;
40623;SDS011;26325;48.594;11.650;2023-03-29T11:44:05;1.95;;;1.30;;
40623;SDS011;26325;48.594;11.650;2023-03-29T11:46:41;3.05;;;1.50;;
40623;SDS011;26325;48.594;11.650;2023-03-29T11:52:21;2.47;;;1.50;;
40623;SDS011;26325;48.594;11.650;2023-03-29T11:55:07;1.58;;;1.35;;
40623;SDS011;26325;48.594;11.650;2023-03-29T11:58:08;1.70;;;1.60;;
40623;SDS011;26325;48.594;11.650;2023-03-29T12:06:27;3.30;;;1.80;;
40623;SDS011;26325;48.594;11.650;2023-03-29T12:09:14;4.85;;;1.40;;
40623;SDS011;26325;48.594;11.650;2023-03-29T12:12:08;1.75;;;1.50;;
40623;SDS011;26325;48.594;11.650;2023-03-29T12:15:20;2.08;;;1.50;;
40623;SDS011;26325;48.594;11.650;2023-03-29T12:20:33;2.85;;;1.98;;
40623;SDS011;26325;48.594;11.650;2023-03-29T12:23:02;5.38;;;3.92;;
40623;SDS011;26325;48.594;11.650;2023-03-29T12:31:27;3.10;;;2.90;;
40623;SDS011;26325;48.594;11.650;2023-03-29T12:36:53;1.63;;;1.50;;
40623;SDS011;26325;48.594;11.650;2023-03-29T12:39:31;1.70;;;1.60;;
40623;SDS011;26325;48.594;11.650;2023-03-29T12:42:20;2.15;;;1.67;;
40623;SDS011;26325;48.594;11.650;2023-03-29T12:44:50;1.83;;;1.40;;
40623;SDS011;26325;48.594;11.650;2023-03-29T12:47:24;2.30;;;1.55;;
40623;SDS011;26325;48.594;11.650;2023-03-29T12:49:57;2.15;;;1.70;;
40623;SDS011;26325;48.594;11.650;2023-03-29T12:54:57;3.30;;;1.80;;
40623;SDS011;26325;48.594;11.650;2023-03-29T12:58:05;2.88;;;1.60;;
40623;SDS011;26325;48.594;11.650;2023-03-29T13:03:33;1.98;;;1.60;;
40623;SDS011;26325;48.594;11.650;2023-03-29T13:06:01;2.05;;;1.85;;
40623;SDS011;26325;48.594;11.650;2023-03-29T13:08:39;3.20;;;1.70;;
40623;SDS011;26325;48.594;11.650;2023-03-29T13:11:11;1.80;;;1.65;;
40623;SDS011;26325;48.594;11.650;2023-03-29T13:13:51;1.98;;;1.50;;
40623;SDS011;26325;48.594;11.650;2023-03-29T13:16:28;1.80;;;1.70;;
40623;SDS011;26325;48.594;11.650;2023-03-29T13:19:29;2.85;;;1.95;;
40623;SDS011;26325;48.594;11.650;2023-03-29T13:33:42;1.42;;;1.33;;
40623;SDS011;26325;48.594;11.650;2023-03-29T13:39:26;2.08;;;1.45;;
40623;SDS011;26325;48.594;11.650;2023-03-29T13:44:42;1.90;;;1.63;;
40623;SDS011;26325;48.594;11.650;2023-03-29T13:50:13;3.17;;;2.30;;
40623;SDS011;26325;48.594;11.650;2023-03-29T13:55:29;2.90;;;1.70;;
40623;SDS011;26325;48.594;11.650;2023-03-29T13:58:05;1.73;;;1.58;;
40623;SDS011;26325;48.594;11.650;2023-03-29T14:00:53;1.63;;;1.52;;
40623;SDS011;26325;48.594;11.650;2023-03-29T14:03:24;2.35;;;1.48;;
40623;SDS011;26325;48.594;11.650;2023-03-29T14:06:03;2.47;;;1.67;;
40623;SDS011;26325;48.594;11.650;2023-03-29T14:08:35;1.70;;;1.35;;
40623;SDS011;26325;48.594;11.650;2023-03-29T14:11:04;2.33;;;1.63;;
40623;SDS011;26325;48.594;11.650;2023-03-29T14:13:31;2.10;;;1.60;;
40623;SDS011;26325;48.594;11.650;2023-03-29T14:16:02;3.05;;;1.38;;
40623;SDS011;26325;48.594;11.650;2023-03-29T14:18:36;1.88;;;1.70;;
40623;SDS011;26325;48.594;11.650;2023-03-29T14:21:06;2.05;;;1.42;;
40623;SDS011;26325;48.594;11.650;2023-03-29T14:23:36;2.33;;;1.30;;
40623;SDS011;26325;48.594;11.650;2023-03-29T14:26:14;1.75;;;1.60;;
40623;SDS011;26325;48.594;11.650;2023-03-29T14:28:48;2.65;;;1.52;;
40623;SDS011;26325;48.594;11.650;2023-03-29T14:33:56;1.58;;;1.42;;
40623;SDS011;26325;48.594;11.650;2023-03-29T14:36:24;2.20;;;1.33;;
40623;SDS011;26325;48.594;11.650;2023-03-29T14:38:55;1.55;;;1.40;;
40623;SDS011;26325;48.594;11.650;2023-03-29T14:41:29;2.03;;;1.40;;
40623;SDS011;26325;48.594;11.650;2023-03-29T14:43:56;2.33;;;1.60;;
40623;SDS011;26325;48.594;11.650;2023-03-29T14:46:23;1.48;;;1.38;;
40623;SDS011;26325;48.594;11.650;2023-03-29T14:48:52;1.90;;;1.42;;
40623;SDS011;26325;48.594;11.650;2023-03-29T14:51:21;1.65;;;1.50;;
40623;SDS011;26325;48.594;11.650;2023-03-29T14:53:52;2.90;;;1.67;;
40623;SDS011;26325;48.594;11.650;2023-03-29T14:56:20;2.88;;;1.60;;
40623;SDS011;26325;48.594;11.650;2023-03-29T14:58:49;2.50;;;1.80;;
40623;SDS011;26325;48.594;11.650;2023-03-29T15:01:19;2.85;;;1.50;;
40623;SDS011;26325;48.594;11.650;2023-03-29T15:03:55;2.38;;;1.70;;
40623;SDS011;26325;48.594;11.650;2023-03-29T15:06:26;1.85;;;1.70;;
40623;SDS011;26325;48.594;11.650;2023-03-29T15:08:54;2.47;;;1.60;;
40623;SDS011;26325;48.594;11.650;2023-03-29T15:11:25;2.65;;;1.73;;
40623;SDS011;26325;48.594;11.650;2023-03-29T15:14:03;2.15;;;1.52;;
40623;SDS011;26325;48.594;11.650;2023-03-29T15:16:41;1.73;;;1.50;;
40623;SDS011;26325;48.594;11.650;2023-03-29T15:19:11;4.10;;;1.73;;
40623;SDS011;26325;48.594;11.650;2023-03-29T15:21:41;2.63;;;1.55;;
40623;SDS011;26325;48.594;11.650;2023-03-29T15:24:19;1.60;;;1.40;;
40623;SDS011;26325;48.594;11.650;2023-03-29T15:27:01;1.98;;;1.60;;
40623;SDS011;26325;48.594;11.650;2023-03-29T15:29:40;2.90;;;1.85;;
40623;SDS011;26325;48.594;11.650;2023-03-29T15:32:31;1.63;;;1.40;;
40623;SDS011;26325;48.594;11.650;2023-03-29T15:35:04;2.83;;;1.35;;
40623;SDS011;26325;48.594;11.650;2023-03-29T15:37:45;1.40;;;1.30;;
40623;SDS011;26325;48.594;11.650;2023-03-29T15:40:24;1.50;;;1.40;;
40623;SDS011;26325;48.594;11.650;2023-03-29T15:42:52;2.88;;;1.80;;
40623;SDS011;26325;48.594;11.650;2023-03-29T15:45:19;1.63;;;1.50;;
40623;SDS011;26325;48.594;11.650;2023-03-29T15:47:48;3.15;;;1.90;;
40623;SDS011;26325;48.594;11.650;2023-03-29T15:50:14;1.73;;;1.50;;
40623;SDS011;26325;48.594;11.650;2023-03-29T15:55:06;1.80;;;1.47;;
40623;SDS011;26325;48.594;11.650;2023-03-29T15:57:33;2.47;;;1.40;;
40623;SDS011;26325;48.594;11.650;2023-03-29T15:59:59;1.48;;;1.38;;
40623;SDS011;26325;48.594;11.650;2023-03-29T16:02:25;1.88;;;1.40;;
40623;SDS011;26325;48.594;11.650;2023-03-29T16:04:52;2.90;;;1.40;;
